sensor_id;sensor_type;location;lat;lon;timestamp;temperature;humidity
68098;DHT22;54886;47.036;15.466;2022-11-15T00:01:38;9.30;85.97
68098;DHT22;54886;47.036;15.466;2022-11-15T00:04:04;9.30;85.75
68098;DHT22;54886;47.036;15.466;2022-11-15T00:06:30;9.27;85.97
68098;DHT22;54886;47.036;15.466;2022-11-15T00:08:58;9.27;86.12
68098;DHT22;54886;47.036;15.466;2022-11-15T00:11:23;9.28;85.91
68098;DHT22;54886;47.036;15.466;2022-11-15T00:13:49;9.27;86.00
68098;DHT22;54886;47.036;15.466;2022-11-15T00:16:14;9.25;86.12
68098;DHT22;54886;47.036;15.466;2022-11-15T00:18:40;9.25;86.06
68098;DHT22;54886;47.036;15.466;2022-11-15T00:21:08;9.24;85.97
68098;DHT22;54886;47.036;15.466;2022-11-15T00:23:34;9.21;85.83
68098;DHT22;54886;47.036;15.466;2022-11-15T00:26:00;9.23;85.92
68098;DHT22;54886;47.036;15.466;2022-11-15T00:28:26;9.23;85.82
68098;DHT22;54886;47.036;15.466;2022-11-15T00:30:51;9.20;85.90
68098;DHT22;54886;47.036;15.466;2022-11-15T00:33:17;9.17;86.24
68098;DHT22;54886;47.036;15.466;2022-11-15T00:35:43;9.17;86.16
68098;DHT22;54886;47.036;15.466;2022-11-15T00:38:08;9.17;86.22
68098;DHT22;54886;47.036;15.466;2022-11-15T00:40:34;9.14;86.10
68098;DHT22;54886;47.036;15.466;2022-11-15T00:42:59;9.14;85.84
68098;DHT22;54886;47.036;15.466;2022-11-15T00:45:25;9.17;86.04
68098;DHT22;54886;47.036;15.466;2022-11-15T00:47:51;9.13;86.30
68098;DHT22;54886;47.036;15.466;2022-11-15T00:50:16;9.13;86.30
68098;DHT22;54886;47.036;15.466;2022-11-15T00:52:42;9.10;86.28
68098;DHT22;54886;47.036;15.466;2022-11-15T00:55:13;9.13;86.49
68098;DHT22;54886;47.036;15.466;2022-11-15T00:57:39;9.11;86.40
68098;DHT22;54886;47.036;15.466;2022-11-15T01:00:05;9.11;86.35
68098;DHT22;54886;47.036;15.466;2022-11-15T01:02:31;9.10;86.53
68098;DHT22;54886;47.036;15.466;2022-11-15T01:04:56;9.10;86.60
68098;DHT22;54886;47.036;15.466;2022-11-15T01:07:22;9.07;86.65
68098;DHT22;54886;47.036;15.466;2022-11-15T01:09:47;9.07;86.66
68098;DHT22;54886;47.036;15.466;2022-11-15T01:12:12;9.07;86.66
68098;DHT22;54886;47.036;15.466;2022-11-15T01:14:38;9.07;86.68
68098;DHT22;54886;47.036;15.466;2022-11-15T01:17:03;9.07;86.22
68098;DHT22;54886;47.036;15.466;2022-11-15T01:19:28;9.10;86.09
68098;DHT22;54886;47.036;15.466;2022-11-15T01:21:54;9.11;86.52
68098;DHT22;54886;47.036;15.466;2022-11-15T01:24:19;9.08;86.66
68098;DHT22;54886;47.036;15.466;2022-11-15T01:26:45;9.08;86.62
68098;DHT22;54886;47.036;15.466;2022-11-15T01:29:10;9.06;86.91
68098;DHT22;54886;47.036;15.466;2022-11-15T01:31:35;9.07;86.48
68098;DHT22;54886;47.036;15.466;2022-11-15T01:34:01;9.08;86.26
68098;DHT22;54886;47.036;15.466;2022-11-15T01:36:26;9.10;86.33
68098;DHT22;54886;47.036;15.466;2022-11-15T01:38:56;9.04;86.72
68098;DHT22;54886;47.036;15.466;2022-11-15T01:41:25;9.06;86.88
68098;DHT22;54886;47.036;15.466;2022-11-15T01:43:56;9.03;86.92
68098;DHT22;54886;47.036;15.466;2022-11-15T01:46:35;9.04;86.91
68098;DHT22;54886;47.036;15.466;2022-11-15T01:49:09;9.04;87.11
68098;DHT22;54886;47.036;15.466;2022-11-15T01:51:37;9.03;87.04
68098;DHT22;54886;47.036;15.466;2022-11-15T01:54:10;9.04;86.95
68098;DHT22;54886;47.036;15.466;2022-11-15T01:56:43;9.00;87.13
68098;DHT22;54886;47.036;15.466;2022-11-15T01:59:10;8.99;86.75
68098;DHT22;54886;47.036;15.466;2022-11-15T02:01:37;9.00;86.55
68098;DHT22;54886;47.036;15.466;2022-11-15T02:04:15;8.99;87.16
68098;DHT22;54886;47.036;15.466;2022-11-15T02:06:42;8.94;87.37
68098;DHT22;54886;47.036;15.466;2022-11-15T02:09:09;8.97;86.88
68098;DHT22;54886;47.036;15.466;2022-11-15T02:11:34;9.00;87.09
68098;DHT22;54886;47.036;15.466;2022-11-15T02:14:00;8.99;87.04
68098;DHT22;54886;47.036;15.466;2022-11-15T02:16:34;9.00;86.77
68098;DHT22;54886;47.036;15.466;2022-11-15T02:21:54;8.97;87.02
68098;DHT22;54886;47.036;15.466;2022-11-15T02:24:41;8.99;87.25
68098;DHT22;54886;47.036;15.466;2022-11-15T02:30:22;9.00;86.95
68098;DHT22;54886;47.036;15.466;2022-11-15T02:37:59;8.99;86.93
68098;DHT22;54886;47.036;15.466;2022-11-15T02:40:52;9.00;86.78
68098;DHT22;54886;47.036;15.466;2022-11-15T02:43:29;8.97;87.05
68098;DHT22;54886;47.036;15.466;2022-11-15T02:46:40;8.94;87.06
68098;DHT22;54886;47.036;15.466;2022-11-15T02:49:28;8.96;87.07
68098;DHT22;54886;47.036;15.466;2022-11-15T02:51:55;8.91;86.94
68098;DHT22;54886;47.036;15.466;2022-11-15T02:54:26;8.94;87.12
68098;DHT22;54886;47.036;15.466;2022-11-15T02:57:05;8.96;86.93
68098;DHT22;54886;47.036;15.466;2022-11-15T02:59:46;8.97;86.97
68098;DHT22;54886;47.036;15.466;2022-11-15T03:08:09;8.94;87.37
68098;DHT22;54886;47.036;15.466;2022-11-15T03:16:20;8.91;86.77
68098;DHT22;54886;47.036;15.466;2022-11-15T03:18:52;8.91;86.77
68098;DHT22;54886;47.036;15.466;2022-11-15T03:21:20;8.93;87.05
68098;DHT22;54886;47.036;15.466;2022-11-15T03:23:48;8.94;86.47
68098;DHT22;54886;47.036;15.466;2022-11-15T03:26:16;8.88;87.47
68098;DHT22;54886;47.036;15.466;2022-11-15T03:28:55;8.90;87.16
68098;DHT22;54886;47.036;15.466;2022-11-15T03:31:22;8.91;86.53
68098;DHT22;54886;47.036;15.466;2022-11-15T03:34:11;8.93;87.10
68098;DHT22;54886;47.036;15.466;2022-11-15T03:36:38;8.91;86.90
68098;DHT22;54886;47.036;15.466;2022-11-15T03:39:06;8.91;87.00
68098;DHT22;54886;47.036;15.466;2022-11-15T03:41:40;8.88;86.98
68098;DHT22;54886;47.036;15.466;2022-11-15T03:44:11;8.88;86.98
68098;DHT22;54886;47.036;15.466;2022-11-15T03:47:02;8.90;87.42
68098;DHT22;54886;47.036;15.466;2022-11-15T03:49:32;8.88;87.38
68098;DHT22;54886;47.036;15.466;2022-11-15T03:52:00;8.86;87.60
68098;DHT22;54886;47.036;15.466;2022-11-15T03:54:26;8.90;87.44
68098;DHT22;54886;47.036;15.466;2022-11-15T03:56:52;8.87;87.45
68098;DHT22;54886;47.036;15.466;2022-11-15T03:59:17;8.84;87.40
68098;DHT22;54886;47.036;15.466;2022-11-15T04:01:43;8.81;87.16
68098;DHT22;54886;47.036;15.466;2022-11-15T04:04:08;8.81;87.77
68098;DHT22;54886;47.036;15.466;2022-11-15T04:06:34;8.84;87.60
68098;DHT22;54886;47.036;15.466;2022-11-15T04:09:00;8.83;87.67
68098;DHT22;54886;47.036;15.466;2022-11-15T04:11:25;8.81;87.52
68098;DHT22;54886;47.036;15.466;2022-11-15T04:13:50;8.86;87.56
68098;DHT22;54886;47.036;15.466;2022-11-15T04:16:16;8.86;87.08
68098;DHT22;54886;47.036;15.466;2022-11-15T04:18:41;8.86;87.00
68098;DHT22;54886;47.036;15.466;2022-11-15T04:21:07;8.87;87.17
68098;DHT22;54886;47.036;15.466;2022-11-15T04:23:51;8.87;87.13
68098;DHT22;54886;47.036;15.466;2022-11-15T04:26:21;8.86;86.76
68098;DHT22;54886;47.036;15.466;2022-11-15T04:28:47;8.86;86.92
68098;DHT22;54886;47.036;15.466;2022-11-15T04:31:31;8.84;87.63
68098;DHT22;54886;47.036;15.466;2022-11-15T04:33:57;8.81;88.06
68098;DHT22;54886;47.036;15.466;2022-11-15T04:36:23;8.81;87.79
68098;DHT22;54886;47.036;15.466;2022-11-15T04:39:07;8.83;87.95
68098;DHT22;54886;47.036;15.466;2022-11-15T04:41:33;8.84;87.50
68098;DHT22;54886;47.036;15.466;2022-11-15T04:43:58;8.84;87.38
68098;DHT22;54886;47.036;15.466;2022-11-15T04:46:24;8.83;87.52
68098;DHT22;54886;47.036;15.466;2022-11-15T04:48:51;8.84;87.68
68098;DHT22;54886;47.036;15.466;2022-11-15T04:51:16;8.80;88.01
68098;DHT22;54886;47.036;15.466;2022-11-15T04:53:42;8.77;88.08
68098;DHT22;54886;47.036;15.466;2022-11-15T04:56:07;8.80;88.09
68098;DHT22;54886;47.036;15.466;2022-11-15T04:58:33;8.81;87.99
68098;DHT22;54886;47.036;15.466;2022-11-15T05:01:09;8.81;87.81
68098;DHT22;54886;47.036;15.466;2022-11-15T05:03:35;8.80;88.08
68098;DHT22;54886;47.036;15.466;2022-11-15T05:06:19;8.77;88.47
68098;DHT22;54886;47.036;15.466;2022-11-15T05:08:45;8.77;88.47
68098;DHT22;54886;47.036;15.466;2022-11-15T05:11:10;8.75;88.42
68098;DHT22;54886;47.036;15.466;2022-11-15T05:13:35;8.76;88.58
68098;DHT22;54886;47.036;15.466;2022-11-15T05:16:01;8.75;88.70
68098;DHT22;54886;47.036;15.466;2022-11-15T05:18:26;8.75;88.71
68098;DHT22;54886;47.036;15.466;2022-11-15T05:20:52;8.72;88.79
68098;DHT22;54886;47.036;15.466;2022-11-15T05:23:17;8.73;88.63
68098;DHT22;54886;47.036;15.466;2022-11-15T05:25:42;8.73;88.77
68098;DHT22;54886;47.036;15.466;2022-11-15T05:28:08;8.76;88.63
68098;DHT22;54886;47.036;15.466;2022-11-15T05:30:33;8.76;88.69
68098;DHT22;54886;47.036;15.466;2022-11-15T05:32:59;8.77;88.42
68098;DHT22;54886;47.036;15.466;2022-11-15T05:35:38;8.79;88.11
68098;DHT22;54886;47.036;15.466;2022-11-15T05:38:05;8.77;88.42
68098;DHT22;54886;47.036;15.466;2022-11-15T05:40:31;8.76;88.50
68098;DHT22;54886;47.036;15.466;2022-11-15T05:42:59;8.76;88.57
68098;DHT22;54886;47.036;15.466;2022-11-15T05:45:26;8.75;88.55
68098;DHT22;54886;47.036;15.466;2022-11-15T05:47:52;8.76;88.45
68098;DHT22;54886;47.036;15.466;2022-11-15T05:50:19;8.75;88.63
68098;DHT22;54886;47.036;15.466;2022-11-15T05:52:45;8.76;88.62
68098;DHT22;54886;47.036;15.466;2022-11-15T05:55:12;8.76;88.53
68098;DHT22;54886;47.036;15.466;2022-11-15T05:57:38;8.76;88.71
68098;DHT22;54886;47.036;15.466;2022-11-15T06:00:04;8.73;88.77
68098;DHT22;54886;47.036;15.466;2022-11-15T06:02:30;8.72;89.03
68098;DHT22;54886;47.036;15.466;2022-11-15T06:04:55;8.65;89.22
68098;DHT22;54886;47.036;15.466;2022-11-15T06:07:21;8.72;88.82
68098;DHT22;54886;47.036;15.466;2022-11-15T06:09:46;8.69;89.03
68098;DHT22;54886;47.036;15.466;2022-11-15T06:12:12;8.70;88.80
68098;DHT22;54886;47.036;15.466;2022-11-15T06:14:37;8.70;88.77
68098;DHT22;54886;47.036;15.466;2022-11-15T06:17:02;8.69;88.83
68098;DHT22;54886;47.036;15.466;2022-11-15T06:19:28;8.68;88.71
68098;DHT22;54886;47.036;15.466;2022-11-15T06:21:58;8.68;88.56
68098;DHT22;54886;47.036;15.466;2022-11-15T06:24:24;8.65;88.52
68098;DHT22;54886;47.036;15.466;2022-11-15T06:26:49;8.68;88.36
68098;DHT22;54886;47.036;15.466;2022-11-15T06:29:14;8.68;88.40
68098;DHT22;54886;47.036;15.466;2022-11-15T06:31:40;8.66;88.31
68098;DHT22;54886;47.036;15.466;2022-11-15T06:34:05;8.69;88.24
68098;DHT22;54886;47.036;15.466;2022-11-15T06:36:30;8.65;88.31
68098;DHT22;54886;47.036;15.466;2022-11-15T06:38:56;8.66;88.20
68098;DHT22;54886;47.036;15.466;2022-11-15T06:41:21;8.73;88.09
68098;DHT22;54886;47.036;15.466;2022-11-15T06:43:47;8.70;88.04
68098;DHT22;54886;47.036;15.466;2022-11-15T06:46:12;8.69;88.08
68098;DHT22;54886;47.036;15.466;2022-11-15T06:48:38;8.69;88.07
68098;DHT22;54886;47.036;15.466;2022-11-15T06:51:04;8.66;88.09
68098;DHT22;54886;47.036;15.466;2022-11-15T06:53:30;8.63;87.95
68098;DHT22;54886;47.036;15.466;2022-11-15T06:56:04;8.65;88.08
68098;DHT22;54886;47.036;15.466;2022-11-15T06:58:30;8.68;88.03
68098;DHT22;54886;47.036;15.466;2022-11-15T07:01:04;8.72;87.93
68098;DHT22;54886;47.036;15.466;2022-11-15T07:03:30;8.68;87.69
68098;DHT22;54886;47.036;15.466;2022-11-15T07:05:56;8.69;87.80
68098;DHT22;54886;47.036;15.466;2022-11-15T07:08:24;8.70;87.75
68098;DHT22;54886;47.036;15.466;2022-11-15T07:10:51;8.72;87.81
68098;DHT22;54886;47.036;15.466;2022-11-15T07:13:17;8.70;88.07
68098;DHT22;54886;47.036;15.466;2022-11-15T07:15:42;8.66;88.15
68098;DHT22;54886;47.036;15.466;2022-11-15T07:18:08;8.69;87.86
68098;DHT22;54886;47.036;15.466;2022-11-15T07:20:33;8.70;87.71
68098;DHT22;54886;47.036;15.466;2022-11-15T07:23:03;8.70;88.04
68098;DHT22;54886;47.036;15.466;2022-11-15T07:25:28;8.69;87.83
68098;DHT22;54886;47.036;15.466;2022-11-15T07:27:55;8.73;87.56
68098;DHT22;54886;47.036;15.466;2022-11-15T07:30:21;8.72;87.49
68098;DHT22;54886;47.036;15.466;2022-11-15T07:32:46;8.70;87.66
68098;DHT22;54886;47.036;15.466;2022-11-15T07:35:11;8.76;87.81
68098;DHT22;54886;47.036;15.466;2022-11-15T07:37:37;8.73;87.58
68098;DHT22;54886;47.036;15.466;2022-11-15T07:40:02;8.76;87.67
68098;DHT22;54886;47.036;15.466;2022-11-15T07:42:31;8.77;87.66
68098;DHT22;54886;47.036;15.466;2022-11-15T07:45:14;8.76;87.73
68098;DHT22;54886;47.036;15.466;2022-11-15T07:47:40;8.79;88.07
68098;DHT22;54886;47.036;15.466;2022-11-15T07:50:05;8.83;87.99
68098;DHT22;54886;47.036;15.466;2022-11-15T07:52:31;8.84;88.29
68098;DHT22;54886;47.036;15.466;2022-11-15T07:54:56;8.84;88.21
68098;DHT22;54886;47.036;15.466;2022-11-15T07:57:22;8.84;88.27
68098;DHT22;54886;47.036;15.466;2022-11-15T07:59:47;8.80;88.26
68098;DHT22;54886;47.036;15.466;2022-11-15T08:02:12;8.86;88.30
68098;DHT22;54886;47.036;15.466;2022-11-15T08:04:38;8.86;88.05
68098;DHT22;54886;47.036;15.466;2022-11-15T08:07:03;8.88;87.92
68098;DHT22;54886;47.036;15.466;2022-11-15T08:09:29;8.88;88.37
68098;DHT22;54886;47.036;15.466;2022-11-15T08:11:54;8.88;87.97
68098;DHT22;54886;47.036;15.466;2022-11-15T08:14:19;8.90;88.35
68098;DHT22;54886;47.036;15.466;2022-11-15T08:16:47;8.91;88.39
68098;DHT22;54886;47.036;15.466;2022-11-15T08:19:12;8.94;88.10
68098;DHT22;54886;47.036;15.466;2022-11-15T08:21:38;8.94;88.26
68098;DHT22;54886;47.036;15.466;2022-11-15T08:24:03;8.96;88.20
68098;DHT22;54886;47.036;15.466;2022-11-15T08:26:29;8.97;88.26
68098;DHT22;54886;47.036;15.466;2022-11-15T08:28:55;8.97;88.03
68098;DHT22;54886;47.036;15.466;2022-11-15T08:31:20;9.00;88.14
68098;DHT22;54886;47.036;15.466;2022-11-15T08:33:46;9.00;87.95
68098;DHT22;54886;47.036;15.466;2022-11-15T08:36:14;9.00;88.23
68098;DHT22;54886;47.036;15.466;2022-11-15T08:38:40;8.97;88.35
68098;DHT22;54886;47.036;15.466;2022-11-15T08:41:06;9.00;88.32
68098;DHT22;54886;47.036;15.466;2022-11-15T08:43:31;9.00;88.42
68098;DHT22;54886;47.036;15.466;2022-11-15T08:45:57;9.00;88.23
68098;DHT22;54886;47.036;15.466;2022-11-15T08:48:23;9.00;88.38
68098;DHT22;54886;47.036;15.466;2022-11-15T08:50:48;9.01;88.10
68098;DHT22;54886;47.036;15.466;2022-11-15T08:53:14;9.06;88.13
68098;DHT22;54886;47.036;15.466;2022-11-15T08:55:40;9.04;88.19
68098;DHT22;54886;47.036;15.466;2022-11-15T08:58:06;9.03;88.58
68098;DHT22;54886;47.036;15.466;2022-11-15T09:00:32;9.00;88.54
68098;DHT22;54886;47.036;15.466;2022-11-15T09:02:57;9.06;88.63
68098;DHT22;54886;47.036;15.466;2022-11-15T09:05:24;9.08;88.50
68098;DHT22;54886;47.036;15.466;2022-11-15T09:07:53;9.08;88.42
68098;DHT22;54886;47.036;15.466;2022-11-15T09:10:19;9.07;88.38
68098;DHT22;54886;47.036;15.466;2022-11-15T09:12:45;9.04;88.56
68098;DHT22;54886;47.036;15.466;2022-11-15T09:15:14;9.07;88.60
68098;DHT22;54886;47.036;15.466;2022-11-15T09:17:40;9.08;88.44
68098;DHT22;54886;47.036;15.466;2022-11-15T09:20:06;9.13;88.58
68098;DHT22;54886;47.036;15.466;2022-11-15T09:22:31;9.14;88.08
68098;DHT22;54886;47.036;15.466;2022-11-15T09:24:57;9.17;88.16
68098;DHT22;54886;47.036;15.466;2022-11-15T09:27:22;9.15;88.26
68098;DHT22;54886;47.036;15.466;2022-11-15T09:29:48;9.18;88.19
68098;DHT22;54886;47.036;15.466;2022-11-15T09:32:13;9.14;88.08
68098;DHT22;54886;47.036;15.466;2022-11-15T09:34:38;9.17;87.94
68098;DHT22;54886;47.036;15.466;2022-11-15T09:37:04;9.20;87.85
68098;DHT22;54886;47.036;15.466;2022-11-15T09:39:29;9.21;88.09
68098;DHT22;54886;47.036;15.466;2022-11-15T09:47:41;9.25;88.11
68098;DHT22;54886;47.036;15.466;2022-11-15T09:50:15;9.30;87.88
68098;DHT22;54886;47.036;15.466;2022-11-15T09:52:44;9.31;87.69
68098;DHT22;54886;47.036;15.466;2022-11-15T09:55:12;9.32;87.60
68098;DHT22;54886;47.036;15.466;2022-11-15T09:58:03;9.32;87.69
68098;DHT22;54886;47.036;15.466;2022-11-15T10:00:44;9.35;87.78
68098;DHT22;54886;47.036;15.466;2022-11-15T10:03:23;9.36;87.52
68098;DHT22;54886;47.036;15.466;2022-11-15T10:05:52;9.39;87.42
68098;DHT22;54886;47.036;15.466;2022-11-15T10:11:02;9.43;87.19
68098;DHT22;54886;47.036;15.466;2022-11-15T10:13:31;9.39;87.36
68098;DHT22;54886;47.036;15.466;2022-11-15T10:21:18;9.48;87.07
68098;DHT22;54886;47.036;15.466;2022-11-15T10:23:44;9.49;87.12
68098;DHT22;54886;47.036;15.466;2022-11-15T10:26:16;9.53;86.84
68098;DHT22;54886;47.036;15.466;2022-11-15T10:28:42;9.53;87.06
68098;DHT22;54886;47.036;15.466;2022-11-15T10:31:26;9.56;86.99
68098;DHT22;54886;47.036;15.466;2022-11-15T10:34:10;9.55;86.98
68098;DHT22;54886;47.036;15.466;2022-11-15T10:36:37;9.59;86.99
68098;DHT22;54886;47.036;15.466;2022-11-15T10:39:03;9.55;87.05
68098;DHT22;54886;47.036;15.466;2022-11-15T10:46:35;9.59;86.77
68098;DHT22;54886;47.036;15.466;2022-11-15T10:49:23;9.60;86.59
68098;DHT22;54886;47.036;15.466;2022-11-15T10:52:19;9.63;86.45
68098;DHT22;54886;47.036;15.466;2022-11-15T10:57:32;9.65;86.43
68098;DHT22;54886;47.036;15.466;2022-11-15T11:00:29;9.68;86.47
68098;DHT22;54886;47.036;15.466;2022-11-15T11:05:30;9.70;85.96
68098;DHT22;54886;47.036;15.466;2022-11-15T11:08:23;9.75;86.14
68098;DHT22;54886;47.036;15.466;2022-11-15T11:10:59;9.76;86.18
68098;DHT22;54886;47.036;15.466;2022-11-15T11:13:34;9.77;85.99
68098;DHT22;54886;47.036;15.466;2022-11-15T11:24:36;9.80;85.83
68098;DHT22;54886;47.036;15.466;2022-11-15T11:32:34;9.83;86.11
68098;DHT22;54886;47.036;15.466;2022-11-15T11:37:55;9.86;85.63
68098;DHT22;54886;47.036;15.466;2022-11-15T11:40:37;9.87;85.55
68098;DHT22;54886;47.036;15.466;2022-11-15T11:46:55;9.89;85.36
68098;DHT22;54886;47.036;15.466;2022-11-15T11:49:10;9.91;85.29
68098;DHT22;54886;47.036;15.466;2022-11-15T11:54:17;9.89;84.52
68098;DHT22;54886;47.036;15.466;2022-11-15T11:56:44;9.89;84.93
68098;DHT22;54886;47.036;15.466;2022-11-15T11:59:28;9.90;85.05
68098;DHT22;54886;47.036;15.466;2022-11-15T12:01:57;9.91;85.07
68098;DHT22;54886;47.036;15.466;2022-11-15T12:04:30;9.90;85.37
68098;DHT22;54886;47.036;15.466;2022-11-15T12:09:36;9.87;85.50
68098;DHT22;54886;47.036;15.466;2022-11-15T12:14:56;9.86;85.58
68098;DHT22;54886;47.036;15.466;2022-11-15T12:17:27;9.91;85.38
68098;DHT22;54886;47.036;15.466;2022-11-15T12:19:58;9.89;85.29
68098;DHT22;54886;47.036;15.466;2022-11-15T12:25:14;9.87;85.45
68098;DHT22;54886;47.036;15.466;2022-11-15T12:27:46;9.91;85.40
68098;DHT22;54886;47.036;15.466;2022-11-15T12:30:17;9.93;85.42
68098;DHT22;54886;47.036;15.466;2022-11-15T12:32:56;9.91;85.53
68098;DHT22;54886;47.036;15.466;2022-11-15T12:35:40;9.93;85.47
68098;DHT22;54886;47.036;15.466;2022-11-15T12:38:10;9.91;85.61
68098;DHT22;54886;47.036;15.466;2022-11-15T12:40:38;9.91;85.64
68098;DHT22;54886;47.036;15.466;2022-11-15T12:45:40;9.89;85.57
68098;DHT22;54886;47.036;15.466;2022-11-15T12:50:55;9.87;85.67
68098;DHT22;54886;47.036;15.466;2022-11-15T13:06:43;9.86;85.85
68098;DHT22;54886;47.036;15.466;2022-11-15T13:12:10;9.86;85.72
68098;DHT22;54886;47.036;15.466;2022-11-15T13:14:41;9.87;85.60
68098;DHT22;54886;47.036;15.466;2022-11-15T13:19:47;9.87;85.75
68098;DHT22;54886;47.036;15.466;2022-11-15T13:22:13;9.85;85.48
68098;DHT22;54886;47.036;15.466;2022-11-15T13:24:57;9.79;85.50
68098;DHT22;54886;47.036;15.466;2022-11-15T13:27:24;9.79;85.49
68098;DHT22;54886;47.036;15.466;2022-11-15T13:29:49;9.80;85.51
68098;DHT22;54886;47.036;15.466;2022-11-15T13:32:16;9.80;85.19
68098;DHT22;54886;47.036;15.466;2022-11-15T13:34:47;9.80;85.30
68098;DHT22;54886;47.036;15.466;2022-11-15T13:39:44;9.80;85.36
68098;DHT22;54886;47.036;15.466;2022-11-15T13:42:15;9.85;85.33
68098;DHT22;54886;47.036;15.466;2022-11-15T13:44:54;9.82;85.39
68098;DHT22;54886;47.036;15.466;2022-11-15T13:47:20;9.80;85.11
68098;DHT22;54886;47.036;15.466;2022-11-15T13:49:45;9.85;85.13
68098;DHT22;54886;47.036;15.466;2022-11-15T13:52:15;9.80;85.10
68098;DHT22;54886;47.036;15.466;2022-11-15T13:54:51;9.77;85.20
68098;DHT22;54886;47.036;15.466;2022-11-15T13:57:28;9.79;85.42
68098;DHT22;54886;47.036;15.466;2022-11-15T13:59:57;9.76;85.26
68098;DHT22;54886;47.036;15.466;2022-11-15T14:02:33;9.77;85.06
68098;DHT22;54886;47.036;15.466;2022-11-15T14:05:19;9.77;85.20
68098;DHT22;54886;47.036;15.466;2022-11-15T14:10:38;9.77;85.33
68098;DHT22;54886;47.036;15.466;2022-11-15T14:13:25;9.75;85.34
68098;DHT22;54886;47.036;15.466;2022-11-15T14:15:51;9.75;85.47
68098;DHT22;54886;47.036;15.466;2022-11-15T14:18:40;9.73;85.31
68098;DHT22;54886;47.036;15.466;2022-11-15T14:21:08;9.73;85.39
68098;DHT22;54886;47.036;15.466;2022-11-15T14:23:33;9.75;85.07
68098;DHT22;54886;47.036;15.466;2022-11-15T14:25:59;9.73;84.90
68098;DHT22;54886;47.036;15.466;2022-11-15T14:30:54;9.72;84.81
68098;DHT22;54886;47.036;15.466;2022-11-15T14:33:33;9.72;84.93
68098;DHT22;54886;47.036;15.466;2022-11-15T14:36:25;9.69;84.99
68098;DHT22;54886;47.036;15.466;2022-11-15T14:38:51;9.69;85.01
68098;DHT22;54886;47.036;15.466;2022-11-15T14:41:21;9.65;85.27
68098;DHT22;54886;47.036;15.466;2022-11-15T14:43:47;9.66;85.24
68098;DHT22;54886;47.036;15.466;2022-11-15T14:46:13;9.62;85.17
68098;DHT22;54886;47.036;15.466;2022-11-15T14:48:38;9.65;85.14
68098;DHT22;54886;47.036;15.466;2022-11-15T14:51:11;9.63;85.18
68098;DHT22;54886;47.036;15.466;2022-11-15T14:53:36;9.65;85.13
68098;DHT22;54886;47.036;15.466;2022-11-15T14:56:02;9.60;84.88
68098;DHT22;54886;47.036;15.466;2022-11-15T14:58:27;9.62;85.09
68098;DHT22;54886;47.036;15.466;2022-11-15T15:00:53;9.60;85.09
68098;DHT22;54886;47.036;15.466;2022-11-15T15:03:18;9.56;85.33
68098;DHT22;54886;47.036;15.466;2022-11-15T15:05:44;9.59;85.22
68098;DHT22;54886;47.036;15.466;2022-11-15T15:08:10;9.59;85.04
68098;DHT22;54886;47.036;15.466;2022-11-15T15:10:38;9.60;85.11
68098;DHT22;54886;47.036;15.466;2022-11-15T15:13:05;9.60;84.95
68098;DHT22;54886;47.036;15.466;2022-11-15T15:15:35;9.60;84.90
68098;DHT22;54886;47.036;15.466;2022-11-15T15:18:02;9.59;85.16
68098;DHT22;54886;47.036;15.466;2022-11-15T15:20:27;9.58;85.30
68098;DHT22;54886;47.036;15.466;2022-11-15T15:22:54;9.59;85.11
68098;DHT22;54886;47.036;15.466;2022-11-15T15:25:23;9.58;85.05
68098;DHT22;54886;47.036;15.466;2022-11-15T15:27:52;9.60;85.06
68098;DHT22;54886;47.036;15.466;2022-11-15T15:30:17;9.60;85.04
68098;DHT22;54886;47.036;15.466;2022-11-15T15:32:43;9.62;85.05
68098;DHT22;54886;47.036;15.466;2022-11-15T15:35:12;9.60;85.26
68098;DHT22;54886;47.036;15.466;2022-11-15T15:37:37;9.59;85.13
68098;DHT22;54886;47.036;15.466;2022-11-15T15:40:08;9.55;85.29
68098;DHT22;54886;47.036;15.466;2022-11-15T15:42:35;9.53;85.31
68098;DHT22;54886;47.036;15.466;2022-11-15T15:45:00;9.52;85.54
68098;DHT22;54886;47.036;15.466;2022-11-15T15:47:26;9.55;85.35
68098;DHT22;54886;47.036;15.466;2022-11-15T15:49:51;9.55;85.26
68098;DHT22;54886;47.036;15.466;2022-11-15T15:52:17;9.52;85.33
68098;DHT22;54886;47.036;15.466;2022-11-15T15:54:42;9.53;85.09
68098;DHT22;54886;47.036;15.466;2022-11-15T15:57:11;9.55;85.18
68098;DHT22;54886;47.036;15.466;2022-11-15T15:59:37;9.55;85.24
68098;DHT22;54886;47.036;15.466;2022-11-15T16:02:03;9.53;85.26
68098;DHT22;54886;47.036;15.466;2022-11-15T16:04:28;9.53;85.05
68098;DHT22;54886;47.036;15.466;2022-11-15T16:06:58;9.55;84.93
68098;DHT22;54886;47.036;15.466;2022-11-15T16:09:24;9.55;84.82
68098;DHT22;54886;47.036;15.466;2022-11-15T16:12:08;9.53;84.94
68098;DHT22;54886;47.036;15.466;2022-11-15T16:14:33;9.52;85.05
68098;DHT22;54886;47.036;15.466;2022-11-15T16:16:59;9.52;84.89
68098;DHT22;54886;47.036;15.466;2022-11-15T16:19:24;9.49;85.16
68098;DHT22;54886;47.036;15.466;2022-11-15T16:21:50;9.46;84.94
68098;DHT22;54886;47.036;15.466;2022-11-15T16:24:17;9.48;85.00
68098;DHT22;54886;47.036;15.466;2022-11-15T16:26:43;9.49;85.09
68098;DHT22;54886;47.036;15.466;2022-11-15T16:29:09;9.49;84.90
68098;DHT22;54886;47.036;15.466;2022-11-15T16:31:35;9.48;84.98
68098;DHT22;54886;47.036;15.466;2022-11-15T16:34:01;9.51;84.88
68098;DHT22;54886;47.036;15.466;2022-11-15T16:36:27;9.51;84.83
68098;DHT22;54886;47.036;15.466;2022-11-15T16:38:55;9.49;84.80
68098;DHT22;54886;47.036;15.466;2022-11-15T16:41:20;9.49;84.97
68098;DHT22;54886;47.036;15.466;2022-11-15T16:43:46;9.52;85.03
68098;DHT22;54886;47.036;15.466;2022-11-15T16:46:16;9.51;84.91
68098;DHT22;54886;47.036;15.466;2022-11-15T16:48:41;9.51;84.94
68098;DHT22;54886;47.036;15.466;2022-11-15T16:51:07;9.49;84.90
68098;DHT22;54886;47.036;15.466;2022-11-15T16:53:33;9.48;84.92
68098;DHT22;54886;47.036;15.466;2022-11-15T16:55:58;9.49;84.98
68098;DHT22;54886;47.036;15.466;2022-11-15T16:58:24;9.48;85.06
68098;DHT22;54886;47.036;15.466;2022-11-15T17:00:54;9.51;84.60
68098;DHT22;54886;47.036;15.466;2022-11-15T17:03:21;9.52;84.42
68098;DHT22;54886;47.036;15.466;2022-11-15T17:05:47;9.51;84.70
68098;DHT22;54886;47.036;15.466;2022-11-15T17:08:12;9.49;84.23
68098;DHT22;54886;47.036;15.466;2022-11-15T17:10:39;9.48;84.51
68098;DHT22;54886;47.036;15.466;2022-11-15T17:13:05;9.45;84.68
68098;DHT22;54886;47.036;15.466;2022-11-15T17:15:32;9.45;84.81
68098;DHT22;54886;47.036;15.466;2022-11-15T17:17:57;9.43;84.67
68098;DHT22;54886;47.036;15.466;2022-11-15T17:20:24;9.46;84.64
68098;DHT22;54886;47.036;15.466;2022-11-15T17:22:50;9.43;84.73
68098;DHT22;54886;47.036;15.466;2022-11-15T17:25:17;9.41;84.68
68098;DHT22;54886;47.036;15.466;2022-11-15T17:27:42;9.46;84.52
68098;DHT22;54886;47.036;15.466;2022-11-15T17:30:10;9.46;84.51